createdAt,value
2019-02-18T00:00:56.794Z,62.59
2019-02-18T00:01:56.779Z,62.59
2019-02-18T00:02:56.756Z,62.40
2019-02-18T00:03:56.749Z,62.37
2019-02-18T00:04:56.712Z,62.75
2019-02-18T00:05:56.691Z,62.56
2019-02-18T00:06:56.669Z,62.46
2019-02-18T00:07:56.649Z,62.78
2019-02-18T00:08:56.626Z,62.75
2019-02-18T00:09:56.669Z,62.46
2019-02-18T00:10:56.591Z,62.56
2019-02-18T00:11:56.564Z,63.13
2019-02-18T00:12:56.543Z,62.94
2019-02-18T00:13:56.512Z,63.23
2019-02-18T00:14:56.499Z,62.85
2019-02-18T00:15:56.481Z,63.70
2019-02-18T00:16:56.458Z,63.51
2019-02-18T00:17:56.436Z,64.08
2019-02-18T00:18:56.410Z,64.08
2019-02-18T00:19:56.396Z,64.08
2019-02-18T00:20:56.370Z,64.72
2019-02-18T00:21:56.346Z,65.48
2019-02-18T00:22:56.341Z,65.58
2019-02-18T00:23:56.310Z,65.77
2019-02-18T00:24:56.287Z,66.53
2019-02-18T00:25:56.269Z,66.33
2019-02-18T00:26:56.246Z,66.24
2019-02-18T00:27:56.229Z,67.10
2019-02-18T00:28:56.204Z,67.29
2019-02-18T00:29:56.195Z,67.10
2019-02-18T00:30:56.162Z,67.95
2019-02-18T00:31:56.133Z,67.47
2019-02-18T00:32:56.121Z,67.76
2019-02-18T00:33:56.092Z,67.73
2019-02-18T00:34:56.081Z,68.01
2019-02-18T00:35:56.063Z,67.63
2019-02-18T00:36:56.027Z,67.35
2019-02-18T00:37:56.006Z,68.21
2019-02-18T00:38:55.988Z,67.63
2019-02-18T00:39:55.968Z,67.35
2019-02-18T00:40:55.971Z,67.73
2019-02-18T00:41:55.950Z,68.21
2019-02-18T00:42:55.899Z,68.40
2019-02-18T00:43:55.892Z,68.59
2019-02-18T00:44:55.875Z,68.40
2019-02-18T00:45:55.843Z,68.87
2019-02-18T00:46:55.818Z,68.96
2019-02-18T00:47:55.795Z,69.25
2019-02-18T00:48:55.782Z,69.73
2019-02-18T00:49:55.764Z,69.41
2019-02-18T00:50:55.736Z,69.41
2019-02-18T00:51:55.713Z,69.79
2019-02-18T00:52:55.701Z,70.36
2019-02-18T00:53:55.688Z,69.98
2019-02-18T00:54:55.645Z,69.79
2019-02-18T00:55:55.624Z,70.26
2019-02-18T00:56:55.605Z,70.36
2019-02-18T00:57:55.575Z,70.45
2019-02-18T00:58:55.562Z,70.17
2019-02-18T00:59:55.561Z,70.36
2019-02-18T01:00:55.519Z,70.17
2019-02-18T01:01:55.539Z,70.36
2019-02-18T01:02:55.471Z,70.07
2019-02-18T01:03:55.450Z,70.45
2019-02-18T01:04:55.429Z,70.36
2019-02-18T01:05:55.412Z,70.26
2019-02-18T01:06:55.396Z,70.54
2019-02-18T01:07:55.392Z,70.74
2019-02-18T01:08:55.343Z,70.64
2019-02-18T01:09:55.354Z,70.36
2019-02-18T01:10:55.309Z,70.36
2019-02-18T01:11:55.277Z,70.54
2019-02-18T01:12:55.258Z,70.54
2019-02-18T01:13:55.257Z,70.64
2019-02-18T01:14:55.216Z,70.54
2019-02-18T01:15:55.229Z,70.93
2019-02-18T01:16:55.171Z,70.64
2019-02-18T01:17:55.153Z,70.36
2019-02-18T01:18:55.118Z,70.83
2019-02-18T01:19:55.106Z,70.64
2019-02-18T01:20:55.078Z,71.12
2019-02-18T01:21:55.054Z,71.02
2019-02-18T01:22:55.037Z,71.22
2019-02-18T01:23:55.017Z,71.02
2019-02-18T01:24:54.994Z,71.02
2019-02-18T01:25:54.965Z,71.22
2019-02-18T01:26:54.950Z,70.93
2019-02-18T01:27:54.965Z,71.02
2019-02-18T01:28:54.907Z,71.22
2019-02-18T01:29:54.884Z,71.41
2019-02-18T01:30:54.862Z,71.78
2019-02-18T01:31:54.839Z,71.46
2019-02-18T01:32:54.818Z,71.41
2019-02-18T01:33:54.811Z,71.84
2019-02-18T01:34:54.783Z,71.56
2019-02-18T01:35:54.749Z,71.08
2019-02-18T01:36:54.743Z,71.37
2019-02-18T01:37:54.708Z,71.84
2019-02-18T01:38:54.687Z,71.56
2019-02-18T01:39:54.731Z,71.84
2019-02-18T01:40:54.643Z,71.66
2019-02-18T01:41:54.614Z,71.94
2019-02-18T01:42:54.605Z,72.03
2019-02-18T01:43:54.571Z,71.75
2019-02-18T01:44:54.552Z,71.75
2019-02-18T01:45:54.536Z,71.84
2019-02-18T01:46:54.517Z,71.46
2019-02-18T01:47:54.490Z,72.03
2019-02-18T01:48:54.476Z,72.60
2019-02-18T01:49:54.443Z,72.51
2019-02-18T01:50:54.414Z,72.32
2019-02-18T01:51:54.399Z,72.60
2019-02-18T01:52:54.451Z,72.60
2019-02-18T01:53:54.354Z,72.89
2019-02-18T01:54:54.336Z,72.32
2019-02-18T01:55:54.309Z,72.26
2019-02-18T01:56:54.291Z,71.69
2019-02-18T01:57:54.261Z,71.69
2019-02-18T01:58:54.247Z,71.59
2019-02-18T01:59:54.237Z,71.22
2019-02-18T02:00:54.214Z,71.31
2019-02-18T02:01:54.174Z,71.50
2019-02-18T02:02:54.154Z,71.41
2019-02-18T02:03:54.133Z,71.41
2019-02-18T02:04:54.107Z,71.50
2019-02-18T02:05:54.088Z,71.31
2019-02-18T02:06:54.065Z,71.59
2019-02-18T02:07:56.577Z,71.50
2019-02-18T02:08:54.023Z,71.41
2019-02-18T02:09:54.017Z,71.59
2019-02-18T02:10:53.995Z,71.59
2019-02-18T02:11:53.955Z,71.59
2019-02-18T02:12:53.942Z,70.64
2019-02-18T02:13:53.913Z,71.59
2019-02-18T02:14:53.897Z,71.31
2019-02-18T02:15:53.865Z,71.41
2019-02-18T02:16:53.849Z,71.50
2019-02-18T02:17:53.858Z,71.41
2019-02-18T02:18:53.805Z,71.41
2019-02-18T02:19:53.780Z,71.22
2019-02-18T02:20:53.756Z,71.50
2019-02-18T02:21:53.733Z,71.78
2019-02-18T02:22:53.712Z,71.50
2019-02-18T02:23:53.690Z,71.41
2019-02-18T02:24:53.697Z,71.50
2019-02-18T02:25:53.644Z,71.69
2019-02-18T02:26:53.623Z,71.97
2019-02-18T02:27:53.591Z,72.07
2019-02-18T02:28:53.578Z,72.74
2019-02-18T02:29:53.565Z,72.07
2019-02-18T02:30:53.532Z,71.88
2019-02-18T02:31:53.505Z,71.78
2019-02-18T02:32:53.493Z,71.59
2019-02-18T02:33:53.467Z,71.78
2019-02-18T02:34:53.449Z,71.50
2019-02-18T02:35:53.429Z,71.69
2019-02-18T02:36:53.442Z,71.22
2019-02-18T02:37:53.386Z,71.50
2019-02-18T02:38:53.359Z,71.41
2019-02-18T02:39:53.349Z,71.31
2019-02-18T02:40:53.314Z,71.22
2019-02-18T02:41:53.290Z,71.41
2019-02-18T02:42:53.270Z,70.83
2019-02-18T02:43:53.246Z,70.87
2019-02-18T02:44:53.225Z,70.49
2019-02-18T02:45:53.212Z,70.49
2019-02-18T02:46:53.181Z,69.92
2019-02-18T02:47:53.156Z,69.73
2019-02-18T02:48:53.135Z,69.73
2019-02-18T02:49:53.115Z,70.01
2019-02-18T02:50:53.091Z,69.73
2019-02-18T02:51:53.071Z,69.73
2019-02-18T02:52:53.049Z,69.92
2019-02-18T02:53:53.025Z,69.92
2019-02-18T02:54:53.000Z,69.82
2019-02-18T02:55:52.980Z,69.73
2019-02-18T02:56:52.958Z,69.92
2019-02-18T02:57:52.939Z,69.63
2019-02-18T02:58:52.912Z,69.82
2019-02-18T02:59:52.895Z,70.30
2019-02-18T03:00:52.867Z,70.39
2019-02-18T03:01:52.850Z,70.68
2019-02-18T03:02:52.825Z,70.39
2019-02-18T03:03:52.808Z,70.36
2019-02-18T03:04:52.781Z,70.07
2019-02-18T03:05:52.767Z,70.36
2019-02-18T03:06:52.731Z,70.36
2019-02-18T03:07:52.710Z,70.39
2019-02-18T03:08:52.690Z,70.45
2019-02-18T03:09:52.687Z,70.36
2019-02-18T03:10:52.670Z,70.58
2019-02-18T03:11:52.617Z,70.68
2019-02-18T03:12:52.613Z,70.45
2019-02-18T03:13:52.587Z,70.54
2019-02-18T03:14:52.560Z,70.45
2019-02-18T03:15:52.540Z,70.39
2019-02-18T03:16:52.519Z,70.74
2019-02-18T03:17:52.493Z,70.64
2019-02-18T03:18:52.471Z,70.54
2019-02-18T03:19:52.448Z,71.02
2019-02-18T03:20:52.434Z,70.54
2019-02-18T03:21:52.405Z,71.02
2019-02-18T03:22:52.381Z,71.31
2019-02-18T03:23:52.363Z,71.31
2019-02-18T03:24:52.345Z,71.02
2019-02-18T03:25:52.317Z,71.22
2019-02-18T03:26:52.294Z,71.41
2019-02-18T03:27:52.271Z,71.02
2019-02-18T03:28:52.249Z,71.31
2019-02-18T03:29:52.229Z,71.31
2019-02-18T03:30:52.231Z,71.50
2019-02-18T03:31:52.184Z,71.02
2019-02-18T03:32:52.384Z,70.93
2019-02-18T03:33:52.140Z,71.31
2019-02-18T03:34:52.120Z,71.41
2019-02-18T03:35:52.093Z,71.41
2019-02-18T03:36:52.073Z,71.59
2019-02-18T03:37:52.053Z,71.41
2019-02-18T03:38:52.024Z,71.22
2019-02-18T03:39:52.007Z,71.31
2019-02-18T03:41:02.490Z,71.41
2019-02-18T03:41:51.959Z,71.31
2019-02-18T03:42:51.953Z,71.22
2019-02-18T03:43:51.914Z,71.41
2019-02-18T03:44:51.904Z,71.41
2019-02-18T03:45:51.904Z,71.50
2019-02-18T03:46:51.854Z,71.50
2019-02-18T03:47:51.837Z,70.83
2019-02-18T03:48:51.890Z,71.50
2019-02-18T03:49:51.783Z,71.22
2019-02-18T03:50:51.779Z,71.41
2019-02-18T03:51:51.744Z,71.31
2019-02-18T03:52:51.719Z,71.41
2019-02-18T03:53:51.691Z,71.22
2019-02-18T03:54:51.672Z,71.59
2019-02-18T03:55:51.682Z,71.50
2019-02-18T03:56:51.637Z,71.97
2019-02-18T03:57:51.626Z,71.69
2019-02-18T03:58:51.585Z,71.78
2019-02-18T03:59:51.559Z,71.78
2019-02-18T04:00:51.541Z,72.45
2019-02-18T04:01:51.518Z,72.22
2019-02-18T04:02:51.499Z,73.18
2019-02-18T04:03:51.473Z,72.99
2019-02-18T04:04:51.454Z,73.36
2019-02-18T04:05:51.431Z,73.84
2019-02-18T04:06:51.421Z,73.46
2019-02-18T04:07:51.388Z,73.65
2019-02-18T04:08:51.354Z,74.12
2019-02-18T04:09:51.346Z,74.22
2019-02-18T04:10:51.312Z,74.31
2019-02-18T04:11:51.316Z,73.93
2019-02-18T04:12:51.287Z,74.22
2019-02-18T04:13:51.245Z,74.22
2019-02-18T04:14:51.224Z,74.31
2019-02-18T04:15:51.210Z,74.51
2019-02-18T04:16:51.197Z,74.41
2019-02-18T04:17:51.189Z,74.51
2019-02-18T04:18:51.132Z,74.51
2019-02-18T04:19:51.108Z,74.31
2019-02-18T04:20:51.121Z,74.51
2019-02-18T04:21:51.071Z,74.12
2019-02-18T04:22:51.047Z,74.31
2019-02-18T04:23:51.033Z,74.12
2019-02-18T04:24:51.004Z,75.17
2019-02-18T04:25:50.984Z,74.79
2019-02-18T04:26:50.959Z,74.88
2019-02-18T04:27:50.957Z,74.69
2019-02-18T04:28:50.914Z,74.41
2019-02-18T04:29:50.891Z,74.69
2019-02-18T04:30:50.884Z,74.31
2019-02-18T04:31:50.873Z,73.84
2019-02-18T04:32:50.827Z,74.12
2019-02-18T04:33:50.802Z,74.03
2019-02-18T04:34:50.772Z,74.03
2019-02-18T04:35:50.762Z,73.27
2019-02-18T04:36:50.729Z,73.46
2019-02-18T04:37:50.721Z,73.27
2019-02-18T04:38:53.997Z,73.55
2019-02-18T04:39:50.659Z,73.36
2019-02-18T04:40:50.635Z,73.27
2019-02-18T04:41:50.615Z,73.55
2019-02-18T04:42:50.604Z,73.74
2019-02-18T04:43:50.566Z,74.22
2019-02-18T04:44:50.552Z,73.74
2019-02-18T04:45:50.532Z,74.03
2019-02-18T04:46:50.501Z,74.51
2019-02-18T04:47:50.475Z,74.60
2019-02-18T04:48:50.456Z,74.69
2019-02-18T04:49:50.441Z,74.79
2019-02-18T04:50:50.412Z,74.60
2019-02-18T04:51:50.392Z,74.60
2019-02-18T04:52:50.371Z,74.88
2019-02-18T04:53:50.348Z,74.03
2019-02-18T04:54:50.322Z,75.55
2019-02-18T04:55:50.301Z,75.60
2019-02-18T04:56:50.282Z,76.08
2019-02-18T04:57:50.251Z,75.89
2019-02-18T04:58:50.243Z,75.70
2019-02-18T04:59:50.243Z,75.89
2019-02-18T05:00:50.219Z,75.89
2019-02-18T05:01:50.164Z,76.37
2019-02-18T05:02:50.181Z,76.56
2019-02-18T05:03:50.119Z,76.46
2019-02-18T05:04:50.101Z,76.56
2019-02-18T05:05:50.105Z,76.56
2019-02-18T05:06:50.049Z,76.56
2019-02-18T05:07:50.032Z,77.03
2019-02-18T05:08:50.009Z,77.03
2019-02-18T05:09:49.979Z,76.65
2019-02-18T05:10:49.961Z,76.84
2019-02-18T05:11:49.937Z,76.75
2019-02-18T05:12:49.918Z,76.75
2019-02-18T05:13:49.889Z,76.65
2019-02-18T05:14:49.873Z,76.84
2019-02-18T05:15:49.857Z,76.84
2019-02-18T05:16:49.826Z,76.75
2019-02-18T05:17:49.807Z,76.75
2019-02-18T05:18:49.775Z,75.79
2019-02-18T05:19:49.755Z,75.32
2019-02-18T05:20:49.729Z,75.42
2019-02-18T05:21:49.719Z,74.85
2019-02-18T05:22:49.694Z,75.07
2019-02-18T05:23:49.659Z,75.36
2019-02-18T05:24:49.643Z,74.51
2019-02-18T05:25:49.626Z,74.31
2019-02-18T05:26:49.595Z,74.41
2019-02-18T05:27:49.570Z,73.84
2019-02-18T05:28:49.553Z,73.84
2019-02-18T05:29:49.528Z,73.55
2019-02-18T05:30:49.510Z,73.27
2019-02-18T05:31:49.484Z,73.27
2019-02-18T05:32:49.450Z,72.99
2019-02-18T05:33:49.450Z,72.99
2019-02-18T05:34:49.445Z,72.99
2019-02-18T05:35:49.396Z,73.55
2019-02-18T05:36:49.377Z,73.08
2019-02-18T05:37:49.379Z,72.89
2019-02-18T05:38:49.318Z,73.27
2019-02-18T05:39:49.296Z,73.27
2019-02-18T05:40:49.286Z,72.79
2019-02-18T05:41:49.280Z,72.89
2019-02-18T05:42:49.308Z,72.89
2019-02-18T05:43:49.242Z,73.27
2019-02-18T05:44:49.196Z,72.99
2019-02-18T05:45:49.164Z,73.08
2019-02-18T05:46:49.135Z,72.41
2019-02-18T05:47:49.124Z,72.51
2019-02-18T05:48:49.090Z,72.41
2019-02-18T05:49:49.078Z,72.51
2019-02-18T05:50:49.042Z,72.45
2019-02-18T05:51:49.037Z,72.35
2019-02-18T05:52:49.036Z,72.26
2019-02-18T05:53:48.990Z,72.89
2019-02-18T05:54:48.981Z,72.60
2019-02-18T05:55:48.964Z,72.51
2019-02-18T05:56:48.919Z,73.46
2019-02-18T05:57:48.889Z,73.46
2019-02-18T05:58:48.886Z,73.27
2019-02-18T05:59:48.844Z,72.89
2019-02-18T06:00:48.826Z,72.60
2019-02-18T06:01:48.814Z,72.79
2019-02-18T06:02:48.789Z,72.70
2019-02-18T06:03:48.752Z,72.45
2019-02-18T06:04:48.751Z,72.32
2019-02-18T06:05:48.744Z,73.30
2019-02-18T06:06:48.723Z,72.89
2019-02-18T06:07:48.663Z,72.92
2019-02-18T06:08:48.667Z,72.55
2019-02-18T06:09:48.626Z,73.08
2019-02-18T06:10:48.592Z,72.26
2019-02-18T06:11:48.592Z,72.26
2019-02-18T06:12:48.575Z,72.55
2019-02-18T06:13:48.524Z,72.45
2019-02-18T06:14:48.502Z,72.35
2019-02-18T06:15:48.503Z,72.55
2019-02-18T06:16:48.474Z,72.55
2019-02-18T06:17:48.440Z,72.35
2019-02-18T06:18:48.437Z,72.35
2019-02-18T06:19:48.414Z,72.16
2019-02-18T06:20:48.369Z,72.35
2019-02-18T06:21:48.382Z,72.45
2019-02-18T06:22:48.340Z,72.45
2019-02-18T06:23:48.303Z,72.32
2019-02-18T06:24:48.287Z,72.55
2019-02-18T06:25:48.278Z,72.35
2019-02-18T06:26:48.241Z,72.64
2019-02-18T06:27:48.208Z,72.35
2019-02-18T06:28:48.264Z,72.35
2019-02-18T06:29:48.228Z,72.35
2019-02-18T06:30:48.145Z,72.45
2019-02-18T06:31:48.128Z,71.97
2019-02-18T06:32:48.254Z,71.97
2019-02-18T06:33:48.071Z,71.97
2019-02-18T06:34:48.059Z,71.78
2019-02-18T06:35:48.037Z,71.97
2019-02-18T06:36:48.011Z,71.88
2019-02-18T06:37:47.980Z,71.78
2019-02-18T06:38:47.959Z,71.78
2019-02-18T06:39:47.969Z,71.78
2019-02-18T06:40:47.937Z,71.69
2019-02-18T06:41:47.898Z,71.78
2019-02-18T06:42:47.870Z,71.88
2019-02-18T06:43:47.860Z,71.78
2019-02-18T06:44:47.830Z,71.97
2019-02-18T06:45:47.805Z,71.88
2019-02-18T06:46:47.792Z,71.41
2019-02-18T06:47:47.755Z,71.88
2019-02-18T06:48:47.746Z,71.22
2019-02-18T06:49:47.744Z,71.12
2019-02-18T06:50:47.692Z,71.02
2019-02-18T06:51:47.666Z,71.22
2019-02-18T06:52:47.669Z,71.41
2019-02-18T06:53:47.645Z,70.83
2019-02-18T06:54:47.606Z,71.41
2019-02-18T06:55:47.575Z,71.22
2019-02-18T06:56:47.563Z,71.22
2019-02-18T06:57:47.545Z,71.41
2019-02-18T06:58:47.512Z,71.41
2019-02-18T06:59:47.492Z,71.59
2019-02-18T07:00:47.485Z,71.41
2019-02-18T07:01:47.452Z,71.31
2019-02-18T07:02:47.416Z,71.50
2019-02-18T07:03:47.399Z,71.41
2019-02-18T07:04:47.385Z,71.41
2019-02-18T07:05:47.358Z,71.31
2019-02-18T07:06:47.363Z,71.22
2019-02-18T07:07:47.358Z,71.22
2019-02-18T07:08:47.287Z,70.93
2019-02-18T07:09:51.387Z,70.45
2019-02-18T07:10:47.246Z,70.64
2019-02-18T07:11:47.220Z,70.93
2019-02-18T07:12:47.210Z,71.12
2019-02-18T07:13:47.174Z,71.41
2019-02-18T07:14:47.152Z,71.12
2019-02-18T07:15:47.125Z,70.93
2019-02-18T07:16:47.100Z,71.31
2019-02-18T07:17:47.087Z,70.74
2019-02-18T07:18:47.068Z,70.93
2019-02-18T07:19:47.045Z,70.93
2019-02-18T07:20:47.024Z,70.83
2019-02-18T07:21:46.996Z,71.22
2019-02-18T07:22:46.999Z,70.74
2019-02-18T07:23:46.947Z,70.54
2019-02-18T07:24:46.993Z,70.17
2019-02-18T07:25:46.927Z,69.92
2019-02-18T07:26:46.947Z,69.63
2019-02-18T07:27:46.866Z,69.63
2019-02-18T07:28:46.849Z,69.82
2019-02-18T07:29:46.814Z,69.54
2019-02-18T07:30:46.787Z,69.35
2019-02-18T07:31:46.801Z,69.15
2019-02-18T07:32:46.748Z,69.35
2019-02-18T07:33:46.746Z,69.63
2019-02-18T07:34:46.708Z,69.25
2019-02-18T07:35:46.684Z,69.06
2019-02-18T07:36:46.668Z,68.77
2019-02-18T07:37:46.639Z,68.96
2019-02-18T07:38:46.656Z,69.15
2019-02-18T07:39:46.622Z,68.96
2019-02-18T07:40:46.602Z,68.77
2019-02-18T07:41:46.557Z,68.49
2019-02-18T07:42:46.549Z,68.49
2019-02-18T07:43:46.516Z,68.87
2019-02-18T07:44:46.486Z,68.40
2019-02-18T07:45:46.467Z,68.90
2019-02-18T07:46:46.437Z,68.49
2019-02-18T07:47:46.424Z,68.71
2019-02-18T07:48:46.430Z,68.71
2019-02-18T07:49:46.387Z,68.81
2019-02-18T07:50:46.401Z,68.43
2019-02-18T07:51:46.366Z,68.24
2019-02-18T07:52:46.311Z,67.57
2019-02-18T07:53:46.289Z,67.57
2019-02-18T07:54:46.279Z,67.47
2019-02-18T07:55:46.251Z,67.47
2019-02-18T07:56:46.235Z,67.76
2019-02-18T07:57:46.215Z,67.47
2019-02-18T07:58:46.208Z,67.57
2019-02-18T07:59:46.164Z,67.76
2019-02-18T08:00:46.153Z,67.86
2019-02-18T08:01:46.154Z,67.76
2019-02-18T08:02:46.091Z,67.76
2019-02-18T08:03:46.092Z,67.47
2019-02-18T08:04:46.110Z,67.38
2019-02-18T08:05:46.062Z,67.76
2019-02-18T08:06:46.010Z,67.38
2019-02-18T08:07:45.986Z,67.29
2019-02-18T08:08:45.976Z,67.76
2019-02-18T08:09:45.944Z,67.47
2019-02-18T08:10:45.934Z,67.38
2019-02-18T08:11:45.910Z,67.95
2019-02-18T08:12:45.898Z,66.81
2019-02-18T08:13:45.864Z,67.38
2019-02-18T08:14:45.847Z,66.85
2019-02-18T08:15:45.813Z,66.72
2019-02-18T08:16:45.795Z,67.19
2019-02-18T08:17:45.781Z,67.03
2019-02-18T08:18:45.750Z,66.66
2019-02-18T08:19:45.757Z,66.37
2019-02-18T08:20:45.730Z,66.56
2019-02-18T08:21:45.685Z,66.27
2019-02-18T08:22:45.682Z,66.18
2019-02-18T08:23:45.673Z,66.08
2019-02-18T08:24:45.634Z,66.08
2019-02-18T08:25:45.631Z,66.27
2019-02-18T08:26:45.590Z,66.37
2019-02-18T08:27:45.561Z,65.70
2019-02-18T08:28:45.539Z,65.70
2019-02-18T08:29:45.531Z,65.42
2019-02-18T08:30:45.491Z,65.89
2019-02-18T08:31:45.501Z,65.70
2019-02-18T08:32:45.467Z,65.61
2019-02-18T08:33:45.464Z,65.73
2019-02-18T08:34:45.423Z,65.45
2019-02-18T08:35:45.386Z,65.13
2019-02-18T08:36:45.395Z,65.42
2019-02-18T08:37:45.378Z,65.45
2019-02-18T08:38:45.350Z,65.42
2019-02-18T08:39:45.303Z,65.73
2019-02-18T08:40:45.317Z,65.55
2019-02-18T08:41:45.289Z,65.16
2019-02-18T08:42:45.250Z,65.07
2019-02-18T08:43:45.221Z,64.69
2019-02-18T08:44:45.227Z,64.97
2019-02-18T08:45:45.205Z,64.87
2019-02-18T08:46:45.163Z,64.31
2019-02-18T08:47:45.161Z,64.87
2019-02-18T08:48:45.133Z,64.59
2019-02-18T08:49:45.103Z,64.02
2019-02-18T08:50:45.088Z,63.83
2019-02-18T08:51:45.056Z,64.40
2019-02-18T08:52:45.030Z,64.21
2019-02-18T08:53:45.007Z,63.54
2019-02-18T08:54:45.006Z,63.67
2019-02-18T08:55:44.964Z,63.67
2019-02-18T08:56:44.951Z,63.39
2019-02-18T08:57:44.937Z,63.48
2019-02-18T08:58:44.910Z,63.76
2019-02-18T08:59:44.906Z,63.20
2019-02-18T09:00:44.894Z,63.00
2019-02-18T09:01:44.872Z,62.72
2019-02-18T09:02:44.822Z,62.91
2019-02-18T09:03:44.811Z,62.62
2019-02-18T09:04:44.797Z,62.24
2019-02-18T09:05:44.762Z,61.76
2019-02-18T09:06:44.750Z,62.24
2019-02-18T09:07:44.725Z,61.76
2019-02-18T09:08:44.700Z,62.24
2019-02-18T09:09:44.680Z,61.76
2019-02-18T09:10:44.687Z,61.70
2019-02-18T09:11:44.651Z,61.67
2019-02-18T09:12:44.663Z,61.51
2019-02-18T09:13:44.609Z,61.51
2019-02-18T09:14:44.626Z,61.41
2019-02-18T09:15:44.574Z,60.94
2019-02-18T09:16:44.541Z,61.51
2019-02-18T09:17:44.531Z,61.32
2019-02-18T09:18:44.504Z,61.22
2019-02-18T09:19:44.496Z,61.13
2019-02-18T09:20:44.473Z,60.46
2019-02-18T09:21:44.450Z,60.75
2019-02-18T09:22:44.423Z,61.60
2019-02-18T09:23:44.435Z,61.60
2019-02-18T09:24:44.382Z,60.84
2019-02-18T09:25:44.376Z,61.32
2019-02-18T09:26:44.337Z,60.84
2019-02-18T09:27:44.321Z,60.75
2019-02-18T09:28:44.332Z,60.94
2019-02-18T09:29:44.302Z,60.94
2019-02-18T09:30:44.257Z,60.65
2019-02-18T09:31:44.233Z,60.94
2019-02-18T09:32:44.249Z,60.97
2019-02-18T09:33:44.211Z,60.68
2019-02-18T09:34:44.172Z,60.30
2019-02-18T09:35:44.155Z,60.30
2019-02-18T09:36:44.136Z,60.68
2019-02-18T09:37:44.129Z,60.21
2019-02-18T09:38:44.114Z,60.11
2019-02-18T09:39:44.117Z,59.82
2019-02-18T09:40:48.360Z,59.63
2019-02-18T09:41:44.037Z,60.39
2019-02-18T09:42:44.022Z,59.16
2019-02-18T09:43:43.993Z,59.44
2019-02-18T09:44:43.982Z,59.25
2019-02-18T09:45:43.964Z,59.56
2019-02-18T09:46:43.943Z,59.56
2019-02-18T09:47:43.920Z,59.28
2019-02-18T09:48:43.901Z,59.28
2019-02-18T09:49:43.901Z,59.09
2019-02-18T09:50:43.857Z,59.09
2019-02-18T09:51:43.864Z,59.19
2019-02-18T09:52:43.830Z,58.14
2019-02-18T09:53:43.803Z,57.75
2019-02-18T09:54:43.785Z,56.89
2019-02-18T09:55:43.792Z,56.89
2019-02-18T09:56:43.738Z,56.35
2019-02-18T09:57:43.733Z,55.49
2019-02-18T09:58:43.698Z,55.96
2019-02-18T09:59:43.675Z,55.87
2019-02-18T10:00:43.676Z,55.11
2019-02-18T10:01:43.637Z,54.53
2019-02-18T10:02:43.611Z,54.72
2019-02-18T10:03:43.599Z,54.91
2019-02-18T10:04:43.616Z,55.40
2019-02-18T10:05:43.559Z,56.06
2019-02-18T10:06:43.543Z,56.25
2019-02-18T10:07:43.535Z,56.35
2019-02-18T10:08:43.504Z,55.77
2019-02-18T10:09:43.489Z,56.06
2019-02-18T10:10:43.454Z,56.35
2019-02-18T10:11:43.469Z,55.30
2019-02-18T10:12:43.418Z,55.11
2019-02-18T10:13:43.401Z,55.11
2019-02-18T10:14:43.449Z,55.20
2019-02-18T10:15:43.361Z,55.58
2019-02-18T10:16:43.366Z,55.11
2019-02-18T10:17:43.356Z,54.94
2019-02-18T10:18:43.313Z,54.72
2019-02-18T10:19:43.294Z,55.32
2019-02-18T10:20:43.290Z,55.99
2019-02-18T10:21:43.259Z,55.61
2019-02-18T10:22:43.237Z,55.04
2019-02-18T10:23:43.208Z,54.75
2019-02-18T10:24:50.574Z,54.47
2019-02-18T10:25:43.167Z,55.04
2019-02-18T10:26:43.156Z,54.08
2019-02-18T10:27:43.148Z,53.51
2019-02-18T10:28:43.121Z,53.61
2019-02-18T10:29:43.094Z,54.08
2019-02-18T10:30:43.074Z,54.47
2019-02-18T10:31:43.064Z,54.85
2019-02-18T10:32:43.042Z,54.75
2019-02-18T10:33:43.009Z,54.75
2019-02-18T10:34:42.994Z,53.99
2019-02-18T10:35:42.990Z,53.63
2019-02-18T10:36:43.013Z,53.82
2019-02-18T10:37:42.956Z,52.67
2019-02-18T10:38:43.019Z,52.48
2019-02-18T10:39:42.916Z,53.16
2019-02-18T10:40:42.925Z,52.58
2019-02-18T10:41:42.863Z,52.01
2019-02-18T10:42:42.834Z,52.48
2019-02-18T10:43:42.843Z,52.20
2019-02-18T10:44:42.792Z,51.81
2019-02-18T10:45:42.781Z,51.72
2019-02-18T10:46:42.755Z,52.29
2019-02-18T10:47:42.750Z,51.34
2019-02-18T10:48:42.740Z,51.34
2019-02-18T10:49:42.712Z,52.01
2019-02-18T10:50:42.677Z,52.01
2019-02-18T10:51:42.673Z,52.01
2019-02-18T10:52:42.639Z,52.58
2019-02-18T10:53:42.647Z,52.01
2019-02-18T10:54:42.621Z,51.84
2019-02-18T10:55:42.593Z,50.60
2019-02-18T10:56:42.587Z,50.31
2019-02-18T10:57:42.576Z,50.98
2019-02-18T10:58:42.536Z,51.46
2019-02-18T10:59:42.516Z,51.75
2019-02-18T11:00:42.484Z,51.93
2019-02-18T11:01:42.473Z,52.03
2019-02-18T11:02:42.472Z,51.36
2019-02-18T11:03:42.469Z,50.98
2019-02-18T11:04:42.437Z,50.21
2019-02-18T11:05:42.408Z,50.12
2019-02-18T11:06:42.379Z,50.31
2019-02-18T11:07:42.361Z,50.41
2019-02-18T11:08:42.339Z,50.31
2019-02-18T11:09:42.351Z,49.35
2019-02-18T11:10:42.332Z,50.21
2019-02-18T11:11:42.305Z,50.21
2019-02-18T11:12:42.257Z,50.02
2019-02-18T11:13:42.292Z,49.84
2019-02-18T11:14:42.312Z,50.12
2019-02-18T11:17:53.751Z,50.41
